Time;durP1;ratioP1;P1;durP2;ratioP2;P2;SDS_P1;SDS_P2;PMS_P1;PMS_P2;Temp;Humidity;BMP_temperature;BMP_pressure;BME280_temperature;BME280_humidity;BME280_pressure;Samples;Min_cycle;Max_cycle;Signal;HPM_P1;HPM_P2
2022/06/30 00:00:17;;;;;;;6.03;3.30;;;17.50;99.90;;;;;;5227594;28;20029;-83
2022/06/30 00:02:48;;;;;;;5.22;2.95;;;17.20;99.90;;;;;;5226487;28;20468;-83
2022/06/30 00:05:19;;;;;;;5.15;3.00;;;17.30;99.90;;;;;;5226812;28;20025;-83
2022/06/30 00:07:50;;;;;;;5.70;3.03;;;17.50;99.90;;;;;;5226476;28;20036;-74
2022/06/30 00:10:22;;;;;;;6.10;3.05;;;17.60;99.90;;;;;;5227735;28;20025;-83
2022/06/30 00:12:52;;;;;;;6.47;3.40;;;17.60;99.90;;;;;;5226893;28;20039;-82
2022/06/30 00:15:23;;;;;;;7.05;3.30;;;17.10;99.90;;;;;;5227677;28;20021;-84
2022/06/30 00:17:54;;;;;;;8.07;3.10;;;17.40;99.90;;;;;;5227493;28;20033;-75
2022/06/30 00:20:25;;;;;;;5.40;3.42;;;17.50;99.90;;;;;;5227197;28;20041;-81
2022/06/30 00:22:56;;;;;;;7.38;2.92;;;17.70;99.90;;;;;;5227589;28;20055;-79
2022/06/30 00:25:27;;;;;;;4.25;3.47;;;17.50;99.90;;;;;;5226146;28;20388;-76
2022/06/30 00:27:58;;;;;;;5.53;3.10;;;17.20;99.90;;;;;;5227406;28;20040;-81
2022/06/30 00:30:29;;;;;;;3.97;2.97;;;17.60;99.90;;;;;;5226914;28;20029;-84
2022/06/30 00:33:00;;;;;;;5.80;3.17;;;17.60;99.90;;;;;;5227286;28;20108;-79
2022/06/30 00:35:31;;;;;;;6.13;3.30;;;17.50;99.90;;;;;;5227132;28;20105;-83
2022/06/30 00:38:02;;;;;;;8.35;3.35;;;17.40;99.90;;;;;;5226885;28;20483;-83
2022/06/30 00:40:43;;;;;;;6.15;3.35;;;17.60;99.90;;;;;;5227228;28;20123;-82
2022/06/30 00:43:14;;;;;;;4.78;3.00;;;17.40;99.90;;;;;;5227292;28;20017;-82
2022/06/30 00:45:49;;;;;;;4.28;2.83;;;17.50;99.90;;;;;;5227152;28;20031;-84
2022/06/30 00:48:20;;;;;;;5.28;2.92;;;17.60;99.90;;;;;;5227157;28;20017;-82
2022/06/30 00:50:50;;;;;;;7.25;2.90;;;17.60;99.90;;;;;;5225314;28;20158;-82
2022/06/30 00:53:23;;;;;;;4.78;3.33;;;17.40;99.90;;;;;;5226943;28;20029;-83
2022/06/30 00:55:55;;;;;;;6.68;2.63;;;17.70;99.90;;;;;;5227012;28;20032;-75
2022/06/30 00:58:26;;;;;;;6.60;2.95;;;17.60;99.90;;;;;;5226907;28;20036;-83
2022/06/30 01:00:59;;;;;;;8.45;3.40;;;17.40;99.90;;;;;;5227313;28;20032;-78
2022/06/30 01:03:32;;;;;;;9.45;3.72;;;17.50;99.90;;;;;;5227120;28;20032;-83
2022/06/30 01:06:04;;;;;;;6.10;3.67;;;17.30;99.90;;;;;;5227003;28;20396;-76
2022/06/30 01:08:35;;;;;;;4.43;3.03;;;17.50;99.90;;;;;;5225532;28;20079;-78
2022/06/30 01:13:55;;;;;;;6.93;3.47;;;17.50;99.90;;;;;;5227165;28;20036;-77
2022/06/30 01:16:26;;;;;;;7.00;3.50;;;17.50;99.90;;;;;;5226667;28;20025;-81
2022/06/30 01:18:57;;;;;;;6.15;3.63;;;17.40;99.90;;;;;;5226615;28;20017;-82
2022/06/30 01:21:28;;;;;;;7.43;3.33;;;17.40;99.90;;;;;;5225292;28;20435;-84
2022/06/30 01:23:59;;;;;;;4.78;3.00;;;17.50;99.90;;;;;;5229412;28;20029;-83
2022/06/30 01:26:30;;;;;;;7.20;3.17;;;17.40;99.90;;;;;;5230314;28;20043;-82
2022/06/30 01:29:06;;;;;;;6.88;3.67;;;17.20;99.90;;;;;;5230740;28;20121;-82
2022/06/30 01:31:37;;;;;;;5.97;3.55;;;17.10;99.90;;;;;;5229424;28;20503;-79
2022/06/30 01:34:08;;;;;;;3.25;2.95;;;17.10;99.90;;;;;;5229633;28;20029;-83
2022/06/30 01:36:39;;;;;;;6.82;3.50;;;17.10;99.90;;;;;;5230337;28;20083;-83
2022/06/30 01:39:10;;;;;;;6.50;3.60;;;17.30;99.90;;;;;;5230607;28;20025;-83
2022/06/30 01:41:40;;;;;;;4.57;3.42;;;17.00;99.90;;;;;;5230845;28;20040;-82
2022/06/30 01:44:11;;;;;;;6.18;3.65;;;17.30;99.90;;;;;;5230806;28;20017;-83
2022/06/30 01:46:49;;;;;;;4.65;3.50;;;17.00;99.90;;;;;;5230634;28;20040;-77
2022/06/30 01:49:20;;;;;;;5.80;3.15;;;17.20;99.90;;;;;;5230401;28;20151;-83
2022/06/30 01:51:51;;;;;;;6.53;3.45;;;17.20;99.90;;;;;;5229942;28;20124;-84
2022/06/30 01:54:22;;;;;;;5.78;3.70;;;17.10;99.90;;;;;;5230360;28;20052;-82
2022/06/30 01:56:53;;;;;;;6.30;3.00;;;17.10;99.90;;;;;;5230558;28;20357;-83
2022/06/30 01:59:24;;;;;;;5.57;3.60;;;17.30;99.90;;;;;;5230219;28;20032;-83
2022/06/30 02:01:55;;;;;;;4.18;2.92;;;17.10;99.90;;;;;;5229182;28;20047;-82
2022/06/30 02:07:15;;;;;;;5.10;3.40;;;17.10;99.90;;;;;;5230391;28;20025;-82
2022/06/30 02:09:47;;;;;;;6.55;3.10;;;17.00;99.90;;;;;;5230422;28;20059;-78
2022/06/30 02:15:11;;;;;;;6.95;3.38;;;17.30;99.90;;;;;;5230296;28;20659;-83
2022/06/30 02:17:42;;;;;;;7.57;4.00;;;17.50;99.90;;;;;;5229667;28;20032;-82
2022/06/30 02:20:13;;;;;;;7.22;2.92;;;17.10;99.90;;;;;;5228531;28;20075;-83
2022/06/30 02:22:44;;;;;;;7.18;3.30;;;17.40;99.90;;;;;;5229641;28;20443;-76
2022/06/30 02:25:15;;;;;;;9.02;3.70;;;17.30;99.90;;;;;;5229802;28;20036;-80
2022/06/30 02:27:47;;;;;;;6.97;3.30;;;17.50;99.90;;;;;;5229721;28;20028;-83
2022/06/30 02:30:18;;;;;;;9.68;3.63;;;17.50;99.90;;;;;;5229843;28;20025;-83
2022/06/30 02:32:49;;;;;;;5.55;3.92;;;17.00;99.90;;;;;;5229411;28;20107;-83
2022/06/30 02:35:21;;;;;;;7.28;3.65;;;16.90;99.90;;;;;;5228764;28;20430;-83
2022/06/30 02:37:53;;;;;;;8.02;3.63;;;17.10;99.90;;;;;;5229147;28;20041;-82
2022/06/30 02:40:24;;;;;;;7.63;3.30;;;17.40;99.90;;;;;;5229760;28;20020;-83
2022/06/30 02:42:55;;;;;;;5.60;3.30;;;17.40;99.90;;;;;;5229557;28;20124;-78
2022/06/30 02:45:26;;;;;;;7.97;4.03;;;17.20;99.90;;;;;;5228247;28;20060;-79
2022/06/30 02:47:58;;;;;;;5.97;3.40;;;17.10;99.90;;;;;;5229053;28;20033;-83
2022/06/30 02:50:29;;;;;;;5.82;3.70;;;17.20;99.90;;;;;;5229072;28;20067;-83
2022/06/30 02:53:00;;;;;;;8.05;3.20;;;17.20;99.90;;;;;;5229319;28;20414;-84
2022/06/30 02:55:31;;;;;;;8.70;3.60;;;17.40;99.90;;;;;;5228960;28;20033;-84
2022/06/30 02:58:02;;;;;;;7.68;3.75;;;17.20;99.90;;;;;;5229146;28;20024;-83
2022/06/30 03:00:33;;;;;;;6.85;3.55;;;17.00;99.90;;;;;;5228767;28;20062;-82
2022/06/30 03:03:04;;;;;;;5.20;3.50;;;17.00;99.90;;;;;;5229046;28;20036;-76
2022/06/30 03:05:34;;;;;;;12.65;3.70;;;17.30;99.90;;;;;;5229114;28;20032;-79
2022/06/30 03:08:05;;;;;;;6.28;3.72;;;17.30;99.90;;;;;;5228712;28;20048;-84
2022/06/30 03:10:36;;;;;;;5.40;3.70;;;17.10;99.90;;;;;;5227457;28;20060;-86
2022/06/30 03:13:07;;;;;;;7.75;3.70;;;17.00;99.90;;;;;;5227434;28;20119;-80
2022/06/30 03:15:39;;;;;;;5.72;3.60;;;17.10;99.90;;;;;;5228585;28;20096;-84
2022/06/30 03:18:10;;;;;;;9.85;4.43;;;16.90;99.90;;;;;;5227368;28;20429;-80
2022/06/30 03:20:41;;;;;;;7.80;4.55;;;16.80;99.90;;;;;;5226755;28;20075;-85
2022/06/30 03:23:12;;;;;;;5.05;3.70;;;16.80;99.90;;;;;;5228335;28;20078;-85
2022/06/30 03:25:43;;;;;;;5.68;3.97;;;17.10;99.90;;;;;;5228361;28;20013;-86
2022/06/30 03:28:14;;;;;;;6.32;4.38;;;17.20;99.90;;;;;;5228246;28;20020;-86
2022/06/30 03:30:47;;;;;;;8.75;4.90;;;17.30;99.90;;;;;;5228188;28;20021;-85
2022/06/30 03:33:18;;;;;;;8.40;5.13;;;17.30;99.90;;;;;;5228196;28;20714;-84
2022/06/30 03:35:49;;;;;;;7.25;4.40;;;17.30;99.90;;;;;;5226863;28;20078;-84
2022/06/30 03:38:20;;;;;;;7.70;3.90;;;17.20;99.90;;;;;;5228142;28;20804;-85
2022/06/30 03:40:51;;;;;;;7.00;3.70;;;17.20;99.90;;;;;;5228009;28;20083;-78
2022/06/30 03:43:22;;;;;;;7.50;4.00;;;17.30;99.90;;;;;;5227934;28;20499;-81
2022/06/30 03:45:53;;;;;;;7.15;4.45;;;17.60;99.90;;;;;;5226794;28;20033;-84
2022/06/30 03:48:24;;;;;;;4.88;3.60;;;17.60;99.90;;;;;;5227969;28;20051;-86
2022/06/30 03:50:55;;;;;;;6.35;3.63;;;17.60;99.90;;;;;;5227595;28;20033;-86
2022/06/30 03:53:26;;;;;;;5.55;4.32;;;17.70;99.90;;;;;;5226479;28;20111;-87
2022/06/30 03:55:57;;;;;;;7.30;3.92;;;17.70;99.90;;;;;;5227931;28;20786;-86
2022/06/30 03:58:27;;;;;;;5.20;3.70;;;17.60;99.90;;;;;;5226648;28;20029;-76
2022/06/30 04:00:58;;;;;;;6.97;4.10;;;17.60;99.90;;;;;;5227714;28;20032;-85
2022/06/30 04:03:29;;;;;;;5.20;3.38;;;17.80;99.90;;;;;;5226165;28;20024;-74
2022/06/30 04:06:00;;;;;;;5.25;3.97;;;17.90;99.90;;;;;;5227774;28;20473;-85
2022/06/30 04:08:31;;;;;;;5.07;3.53;;;18.40;99.90;;;;;;5227513;28;20040;-84
2022/06/30 04:11:02;;;;;;;7.63;4.40;;;18.40;99.90;;;;;;5227474;28;20039;-76
2022/06/30 04:13:32;;;;;;;7.50;3.70;;;18.40;99.90;;;;;;5227363;28;20025;-84
2022/06/30 04:16:04;;;;;;;6.22;3.42;;;18.80;99.90;;;;;;5227495;28;20452;-77
2022/06/30 04:18:35;;;;;;;4.05;3.30;;;18.90;99.90;;;;;;5227490;28;20484;-84
2022/06/30 04:21:06;;;;;;;7.35;3.30;;;19.00;99.90;;;;;;5227037;28;20055;-86
2022/06/30 04:23:37;;;;;;;5.65;2.72;;;19.20;99.90;;;;;;5227199;28;20021;-86
2022/06/30 04:26:08;;;;;;;9.65;3.50;;;19.40;99.90;;;;;;5225860;28;20072;-85
2022/06/30 04:28:39;;;;;;;8.55;3.60;;;19.70;99.90;;;;;;5227169;28;20017;-86
2022/06/30 04:33:58;;;;;;;6.93;4.73;;;19.70;99.90;;;;;;5227369;28;20044;-86
2022/06/30 04:36:30;;;;;;;8.50;4.65;;;19.80;99.90;;;;;;5227011;28;20025;-86
2022/06/30 04:39:00;;;;;;;8.88;4.30;;;19.80;99.90;;;;;;5227165;28;20361;-85
2022/06/30 04:41:31;;;;;;;7.53;4.70;;;19.70;99.90;;;;;;5227195;28;20029;-85
2022/06/30 04:44:02;;;;;;;7.28;4.68;;;19.70;99.90;;;;;;5226984;28;20484;-85
2022/06/30 04:46:34;;;;;;;4.50;3.60;;;19.90;99.90;;;;;;5226498;28;20029;-75
2022/06/30 04:49:04;;;;;;;7.05;3.55;;;19.90;99.90;;;;;;5225422;28;20119;-84
2022/06/30 04:51:35;;;;;;;6.00;3.50;;;20.10;99.90;;;;;;5226496;28;20171;-87
2022/06/30 04:54:06;;;;;;;7.05;4.13;;;20.30;99.90;;;;;;5226990;28;20029;-86
2022/06/30 04:56:37;;;;;;;9.55;4.55;;;20.60;99.90;;;;;;5226785;28;20029;-86
2022/06/30 04:59:08;;;;;;;6.65;4.60;;;20.70;99.90;;;;;;5226188;28;20017;-85
2022/06/30 05:01:39;;;;;;;8.77;4.18;;;21.10;99.90;;;;;;5218873;28;20113;-86
2022/06/30 05:04:09;;;;;;;8.70;3.92;;;21.20;99.90;;;;;;5204971;28;20021;-81
2022/06/30 05:06:40;;;;;;;7.22;4.03;;;21.30;99.90;;;;;;5204674;28;20385;-74
2022/06/30 05:09:11;;;;;;;9.10;3.60;;;21.20;99.90;;;;;;5204785;28;20033;-87
2022/06/30 05:11:42;;;;;;;9.82;3.45;;;21.40;99.90;;;;;;5206027;28;20122;-88
2022/06/30 05:14:13;;;;;;;6.63;3.10;;;21.50;99.90;;;;;;5205968;28;20029;-78
2022/06/30 05:16:44;;;;;;;7.90;3.60;;;21.60;99.90;;;;;;5205953;28;20025;-86
2022/06/30 05:19:15;;;;;;;12.00;3.47;;;22.00;99.90;;;;;;5205884;28;20089;-86
2022/06/30 05:21:45;;;;;;;6.05;3.25;;;22.70;99.90;;;;;;5205543;28;20058;-77
2022/06/30 05:27:06;;;;;;;6.80;2.55;;;22.90;99.90;;;;;;5205856;28;20052;-88
2022/06/30 05:29:36;;;;;;;9.43;2.30;;;22.60;99.90;;;;;;5209014;28;20037;-86
2022/06/30 05:32:08;;;;;;;6.85;2.20;;;22.50;99.90;;;;;;5205753;28;20038;-86
2022/06/30 05:34:39;;;;;;;6.35;2.22;;;22.30;99.90;;;;;;5205997;28;20026;-85
2022/06/30 05:37:10;;;;;;;5.90;2.75;;;22.30;99.90;;;;;;5204807;28;20397;-84
2022/06/30 05:39:41;;;;;;;11.02;2.60;;;22.30;99.90;;;;;;5206040;28;20097;-81
2022/06/30 05:42:12;;;;;;;6.97;2.42;;;22.30;99.90;;;;;;5206037;28;20032;-85
2022/06/30 05:44:42;;;;;;;10.82;2.80;;;22.50;99.90;;;;;;5205555;28;20060;-84
2022/06/30 05:47:13;;;;;;;9.00;3.03;;;22.80;99.90;;;;;;5205700;28;20392;-85
2022/06/30 05:49:44;;;;;;;8.13;2.90;;;23.30;99.90;;;;;;5205620;28;20083;-84
2022/06/30 05:52:15;;;;;;;8.20;2.33;;;23.70;99.90;;;;;;5204259;28;20378;-78
2022/06/30 05:54:46;;;;;;;8.82;2.13;;;23.40;99.90;;;;;;5205781;28;20477;-84
2022/06/30 05:57:17;;;;;;;3.97;2.00;;;23.20;99.90;;;;;;5204418;28;20485;-84
2022/06/30 05:59:48;;;;;;;4.38;1.75;;;23.70;99.90;;;;;;5205644;28;20014;-82
2022/06/30 06:02:18;;;;;;;6.82;1.73;;;23.90;99.90;;;;;;5205238;28;20516;-78
2022/06/30 06:04:49;;;;;;;12.23;2.00;;;24.30;99.90;;;;;;5205038;28;20053;-78
2022/06/30 06:07:20;;;;;;;5.65;1.90;;;24.10;99.90;;;;;;5204512;28;20037;-76
2022/06/30 06:09:51;;;;;;;6.88;2.28;;;24.00;99.90;;;;;;5205604;28;20084;-76
2022/06/30 06:12:22;;;;;;;5.57;1.83;;;24.40;99.90;;;;;;5220874;28;20044;-84
2022/06/30 06:14:54;;;;;;;7.85;1.95;;;24.40;99.90;;;;;;5209358;28;20029;-85
2022/06/30 06:17:25;;;;;;;6.13;1.90;;;24.50;99.90;;;;;;5212591;28;20473;-85
2022/06/30 06:19:56;;;;;;;3.78;1.70;;;24.80;99.90;;;;;;5208755;28;20030;-75
2022/06/30 06:22:27;;;;;;;4.35;1.90;;;25.10;99.90;;;;;;5208946;28;20048;-84
2022/06/30 06:24:57;;;;;;;6.40;1.65;;;24.50;99.90;;;;;;5220414;28;20037;-82
2022/06/30 06:27:28;;;;;;;5.95;1.95;;;24.30;99.90;;;;;;5211247;28;20112;-81
2022/06/30 06:29:59;;;;;;;7.38;2.13;;;24.70;99.90;;;;;;5206506;28;20120;-84
2022/06/30 06:32:30;;;;;;;6.10;1.55;;;25.00;99.90;;;;;;5208288;28;20037;-82
2022/06/30 06:35:02;;;;;;;6.38;1.77;;;24.90;99.90;;;;;;5208551;28;20032;-80
2022/06/30 06:37:33;;;;;;;6.60;1.60;;;24.70;99.90;;;;;;5208236;28;20041;-85
2022/06/30 06:40:04;;;;;;;5.07;1.75;;;25.10;99.90;;;;;;5220996;28;20476;-82
2022/06/30 06:42:35;;;;;;;8.60;1.98;;;25.50;99.90;;;;;;5229161;28;20079;-83
2022/06/30 06:45:06;;;;;;;7.72;1.90;;;25.20;99.90;;;;;;5228855;28;20465;-85
2022/06/30 06:47:37;;;;;;;5.05;1.83;;;25.10;99.90;;;;;;5229253;28;20020;-85
2022/06/30 06:50:09;;;;;;;8.32;1.60;;;25.60;99.90;;;;;;5227053;28;20443;-83
2022/06/30 06:52:40;;;;;;;5.07;1.50;;;25.60;99.90;;;;;;5218197;28;20167;-76
2022/06/30 06:55:11;;;;;;;7.00;1.88;;;25.10;99.90;;;;;;5211123;28;20021;-73
2022/06/30 06:57:44;;;;;;;4.03;1.40;;;25.10;99.90;;;;;;5212568;28;20033;-85
2022/06/30 07:00:16;;;;;;;5.95;1.67;;;25.30;99.90;;;;;;5221118;28;20021;-81
2022/06/30 07:02:47;;;;;;;3.95;1.92;;;25.40;99.90;;;;;;5215420;28;20014;-80
2022/06/30 07:05:18;;;;;;;4.55;2.13;;;25.10;99.90;;;;;;5225436;28;20025;-75
2022/06/30 07:07:57;;;;;;;4.43;1.98;;;24.80;99.90;;;;;;5215217;28;20027;-86
2022/06/30 07:10:29;;;;;;;5.07;1.73;;;24.70;99.90;;;;;;5215456;28;20474;-88
2022/06/30 07:13:00;;;;;;;5.38;1.90;;;24.40;99.90;;;;;;5224180;28;20132;-85
2022/06/30 07:15:30;;;;;;;4.40;1.52;;;24.60;99.90;;;;;;5213628;28;20092;-86
2022/06/30 07:18:03;;;;;;;6.13;1.70;;;24.40;99.90;;;;;;5220134;28;20021;-85
2022/06/30 07:20:34;;;;;;;3.53;1.60;;;24.30;99.90;;;;;;5220992;28;20428;-77
2022/06/30 07:23:05;;;;;;;5.35;1.60;;;24.20;99.90;;;;;;5211397;28;20025;-80
2022/06/30 07:25:36;;;;;;;4.95;1.60;;;24.70;99.90;;;;;;5222284;28;20025;-75
2022/06/30 07:28:06;;;;;;;7.40;1.88;;;25.40;99.90;;;;;;5216816;28;20033;-83
2022/06/30 07:30:37;;;;;;;6.65;1.77;;;25.70;99.90;;;;;;5228035;28;20036;-85
2022/06/30 07:33:08;;;;;;;5.65;1.80;;;25.30;99.90;;;;;;5211744;28;20029;-80
2022/06/30 07:35:39;;;;;;;5.28;1.50;;;25.80;99.90;;;;;;5221667;28;20074;-86
2022/06/30 07:38:10;;;;;;;6.72;1.80;;;24.80;99.90;;;;;;5219764;28;20029;-81
2022/06/30 07:40:41;;;;;;;3.25;1.80;;;25.10;99.90;;;;;;5217160;28;20381;-85
2022/06/30 07:43:12;;;;;;;6.22;1.80;;;25.00;99.90;;;;;;5228384;28;20025;-84
2022/06/30 07:45:43;;;;;;;7.07;2.13;;;25.70;99.90;;;;;;5216892;28;20025;-75
2022/06/30 07:48:14;;;;;;;5.82;1.77;;;26.00;99.90;;;;;;5220830;28;20102;-86
2022/06/30 07:50:45;;;;;;;4.90;1.45;;;26.30;99.90;;;;;;5223355;28;20623;-82
2022/06/30 07:53:16;;;;;;;4.90;1.52;;;25.80;99.90;;;;;;5215486;28;20854;-82
2022/06/30 07:55:47;;;;;;;4.55;1.40;;;25.90;99.90;;;;;;5214093;28;20024;-79
2022/06/30 07:58:18;;;;;;;4.53;1.20;;;25.40;99.90;;;;;;5221498;28;20025;-84
2022/06/30 08:00:49;;;;;;;4.88;1.70;;;25.60;99.90;;;;;;5223917;28;20456;-82
2022/06/30 08:03:23;;;;;;;2.60;1.42;;;25.90;99.90;;;;;;5225369;28;20021;-82
2022/06/30 08:05:55;;;;;;;4.40;1.27;;;25.40;99.90;;;;;;5213789;28;20029;-76
2022/06/30 08:08:26;;;;;;;4.43;1.30;;;25.00;99.90;;;;;;5214825;28;20095;-75
2022/06/30 08:10:57;;;;;;;3.17;1.58;;;25.10;99.90;;;;;;5223504;28;20139;-85
2022/06/30 08:13:28;;;;;;;6.35;1.83;;;25.10;99.90;;;;;;5210958;28;20086;-84
2022/06/30 08:15:59;;;;;;;6.93;1.92;;;25.00;99.90;;;;;;5218328;28;20017;-83
2022/06/30 08:18:30;;;;;;;4.70;1.40;;;25.10;99.90;;;;;;5219691;28;20021;-85
2022/06/30 08:21:01;;;;;;;3.90;1.55;;;25.10;99.90;;;;;;5209278;28;20041;-84
2022/06/30 08:23:31;;;;;;;5.97;1.60;;;25.30;99.90;;;;;;5219371;28;20106;-86
2022/06/30 08:26:03;;;;;;;4.13;1.40;;;25.50;99.90;;;;;;5218066;28;20032;-83
2022/06/30 08:28:34;;;;;;;3.45;1.20;;;26.00;99.90;;;;;;5220351;28;20029;-85
2022/06/30 08:31:05;;;;;;;6.05;1.70;;;25.70;99.90;;;;;;5208969;28;20053;-84
2022/06/30 08:33:36;;;;;;;2.00;1.40;;;25.80;99.90;;;;;;5220315;28;20047;-85
2022/06/30 08:36:08;;;;;;;3.70;1.63;;;25.70;99.90;;;;;;5216085;28;20104;-84
2022/06/30 08:38:39;;;;;;;2.38;1.55;;;25.80;99.90;;;;;;5212589;28;20080;-83
2022/06/30 08:44:00;;;;;;;2.83;1.30;;;25.70;99.90;;;;;;5215477;28;20082;-81
2022/06/30 08:46:33;;;;;;;2.83;1.25;;;25.70;99.90;;;;;;5226590;28;20035;-84
2022/06/30 08:49:05;;;;;;;4.20;1.48;;;26.60;99.90;;;;;;5210013;28;20488;-83
2022/06/30 08:51:36;;;;;;;7.68;1.70;;;26.10;99.90;;;;;;5217732;28;20059;-83
2022/06/30 08:54:11;;;;;;;3.28;1.50;;;25.90;99.90;;;;;;5205997;28;20036;-84
2022/06/30 08:56:45;;;;;;;5.43;1.50;;;26.00;99.90;;;;;;5220763;28;20061;-83
2022/06/30 08:59:17;;;;;;;5.00;1.40;;;25.60;99.90;;;;;;5213014;28;20026;-85
2022/06/30 09:01:48;;;;;;;3.60;1.30;;;26.20;99.90;;;;;;5219162;28;20048;-84
2022/06/30 09:04:24;;;;;;;6.00;1.40;;;26.00;99.90;;;;;;5217779;28;20405;-84
2022/06/30 09:06:55;;;;;;;2.85;1.30;;;26.30;99.90;;;;;;5209821;28;20061;-85
2022/06/30 09:09:26;;;;;;;2.72;1.15;;;25.90;99.90;;;;;;5220555;28;20469;-83
2022/06/30 09:11:58;;;;;;;2.83;1.63;;;26.00;99.90;;;;;;5213940;28;20032;-85
2022/06/30 09:14:40;;;;;;;3.97;1.55;;;26.60;99.90;;;;;;5213428;28;20022;-84
2022/06/30 09:17:14;;;;;;;4.07;1.40;;;26.40;99.90;;;;;;5224296;28;20033;-75
2022/06/30 09:19:58;;;;;;;4.10;1.38;;;25.90;99.90;;;;;;5218848;28;20347;-79
2022/06/30 09:22:38;;;;;;;6.32;2.13;;;26.00;99.90;;;;;;5206547;28;20501;-85
2022/06/30 09:25:14;;;;;;;3.88;1.30;;;26.70;99.90;;;;;;5221875;28;20037;-79
2022/06/30 09:27:47;;;;;;;7.95;1.58;;;26.60;99.90;;;;;;5212595;28;20460;-86
2022/06/30 09:30:21;;;;;;;4.57;1.65;;;26.80;99.90;;;;;;5214673;28;20080;-84
2022/06/30 09:33:06;;;;;;;3.72;1.33;;;26.40;99.90;;;;;;5221530;28;20071;-81
2022/06/30 09:35:38;;;;;;;3.75;1.80;;;25.70;99.90;;;;;;5211637;28;20472;-75
2022/06/30 09:38:14;;;;;;;6.30;1.77;;;27.00;99.90;;;;;;5223186;28;20044;-77
2022/06/30 09:41:04;;;;;;;4.60;1.70;;;26.50;99.90;;;;;;5216470;28;20029;-85
2022/06/30 09:43:37;;;;;;;4.68;1.30;;;26.20;99.90;;;;;;5212437;28;20013;-77
2022/06/30 09:46:11;;;;;;;5.25;1.15;;;26.80;99.90;;;;;;5218622;28;20021;-80
2022/06/30 09:48:42;;;;;;;5.03;1.25;;;26.90;99.90;;;;;;5224532;28;20451;-83
2022/06/30 09:51:14;;;;;;;4.93;1.63;;;27.50;99.90;;;;;;5212044;28;20033;-75
2022/06/30 09:54:09;;;;;;;4.03;1.38;;;27.70;99.90;;;;;;5216663;28;20508;-75
2022/06/30 09:56:40;;;;;;;5.20;1.58;;;26.40;99.90;;;;;;5215902;28;20432;-84
2022/06/30 09:59:24;;;;;;;3.60;1.20;;;26.80;99.90;;;;;;5226569;28;20025;-75
2022/06/30 10:01:55;;;;;;;3.78;1.77;;;27.50;99.90;;;;;;5228754;28;20112;-84
2022/06/30 10:04:26;;;;;;;3.70;1.23;;;26.50;99.90;;;;;;5216838;28;20053;-81
2022/06/30 10:06:57;;;;;;;6.72;1.75;;;27.10;99.90;;;;;;5225095;28;20021;-75
2022/06/30 10:09:30;;;;;;;7.80;1.60;;;26.70;99.90;;;;;;5211412;28;20393;-74
2022/06/30 10:12:01;;;;;;;4.78;1.40;;;26.80;99.90;;;;;;5227272;28;20090;-82
2022/06/30 10:14:34;;;;;;;3.85;1.40;;;26.60;99.90;;;;;;5215820;28;20432;-86
2022/06/30 10:17:07;;;;;;;6.90;1.77;;;26.30;99.90;;;;;;5225327;28;20480;-85
2022/06/30 10:19:37;;;;;;;5.60;1.45;;;27.60;99.90;;;;;;5230116;28;20079;-86
2022/06/30 10:22:09;;;;;;;3.40;1.30;;;27.60;99.90;;;;;;5218451;28;20467;-86
2022/06/30 10:24:41;;;;;;;4.53;1.15;;;27.70;99.90;;;;;;5223947;28;20047;-81
2022/06/30 10:27:12;;;;;;;2.90;1.30;;;27.20;99.90;;;;;;5228832;28;20025;-78
2022/06/30 10:29:48;;;;;;;5.88;1.40;;;27.80;99.90;;;;;;5222357;28;20041;-78
2022/06/30 10:32:34;;;;;;;3.40;1.58;;;27.40;99.90;;;;;;5220094;28;20037;-79
2022/06/30 10:35:21;;;;;;;4.78;1.40;;;26.80;99.90;;;;;;5212398;28;20033;-82
2022/06/30 10:38:20;;;;;;;5.07;1.45;;;26.90;99.90;;;;;;5220838;28;20037;-74
2022/06/30 10:41:10;;;;;;;4.40;1.30;;;27.50;99.90;;;;;;5224256;28;20025;-74
2022/06/30 10:44:04;;;;;;;5.03;1.50;;;27.80;99.90;;;;;;5214671;28;20021;-81
2022/06/30 10:46:56;;;;;;;2.88;1.30;;;26.90;99.90;;;;;;5204171;28;20037;-74
2022/06/30 10:49:28;;;;;;;7.82;1.45;;;26.70;99.90;;;;;;5212474;28;20424;-78
2022/06/30 10:52:22;;;;;;;4.85;1.60;;;27.60;99.90;;;;;;5226856;28;20435;-76
2022/06/30 10:55:01;;;;;;;4.03;1.38;;;26.60;99.90;;;;;;5227824;28;20420;-74
2022/06/30 10:57:58;;;;;;;;;;;26.30;99.90;;;;;;5211740;28;20053;-76
2022/06/30 11:00:47;;;;;;;4.35;1.42;;;26.80;99.90;;;;;;5220368;28;19909;-75
2022/06/30 11:03:32;;;;;;;;;;;26.60;99.90;;;;;;5212210;28;20029;-73
2022/06/30 11:06:13;;;;;;;4.43;1.63;;;27.60;99.90;;;;;;5217679;28;19905;-82
2022/06/30 11:08:50;;;;;;;4.78;1.42;;;27.20;99.90;;;;;;5222924;28;20039;-74
2022/06/30 11:11:24;;;;;;;4.90;1.75;;;26.60;99.90;;;;;;5224397;28;20029;-73
2022/06/30 11:14:03;;;;;;;4.32;1.50;;;27.30;99.90;;;;;;5216151;28;20039;-76
2022/06/30 11:16:36;;;;;;;4.45;1.50;;;27.60;99.90;;;;;;5214213;28;20045;-75
2022/06/30 11:19:20;;;;;;;5.90;1.98;;;27.00;99.90;;;;;;5223856;28;20040;-73
2022/06/30 11:21:54;;;;;;;3.90;1.48;;;26.80;99.90;;;;;;5215094;28;20443;-73
2022/06/30 11:24:27;;;;;;;5.00;1.60;;;27.00;99.90;;;;;;5215662;28;20038;-73
2022/06/30 11:30:09;;;;;;;3.03;1.35;;;27.30;99.90;;;;;;5214828;28;20102;-84
2022/06/30 11:32:40;;;;;;;3.92;1.60;;;27.60;99.90;;;;;;5227408;28;20037;-82
2022/06/30 11:35:11;;;;;;;3.65;1.50;;;27.50;99.90;;;;;;5208916;28;20491;-79
2022/06/30 11:37:42;;;;;;;6.28;1.40;;;27.40;99.90;;;;;;5217891;28;20033;-78
2022/06/30 11:40:17;;;;;;;3.67;1.33;;;27.60;99.90;;;;;;5220373;28;20024;-86
2022/06/30 11:42:50;;;;;;;4.95;1.52;;;28.10;99.90;;;;;;5212112;28;20029;-87
2022/06/30 11:45:23;;;;;;;2.92;1.52;;;28.30;99.90;;;;;;5223589;28;20111;-77
2022/06/30 11:48:03;;;;;;;4.43;1.48;;;28.10;99.90;;;;;;5213927;28;20112;-78
2022/06/30 11:50:34;;;;;;;5.03;1.60;;;28.10;99.90;;;;;;5212570;28;20091;-84
2022/06/30 11:53:05;;;;;;;8.45;1.33;;;27.20;99.90;;;;;;5208967;28;20132;-80
2022/06/30 11:55:37;;;;;;;4.15;1.55;;;27.10;99.90;;;;;;5219887;28;20026;-82
2022/06/30 11:58:08;;;;;;;6.35;1.90;;;27.80;99.90;;;;;;5206501;28;20048;-81
2022/06/30 12:00:41;;;;;;;8.15;1.75;;;27.80;99.90;;;;;;5221209;28;20389;-74
2022/06/30 12:03:12;;;;;;;6.00;1.60;;;28.40;99.90;;;;;;5210561;28;20048;-83
2022/06/30 12:05:43;;;;;;;4.15;1.17;;;28.80;99.90;;;;;;5220290;28;20010;-73
2022/06/30 12:08:14;;;;;;;6.38;1.50;;;29.00;99.90;;;;;;5216546;28;20033;-85
2022/06/30 12:10:45;;;;;;;7.35;1.70;;;28.60;99.90;;;;;;5211856;28;20358;-79
2022/06/30 12:13:17;;;;;;;5.68;1.35;;;28.40;99.90;;;;;;5222822;28;20029;-83
2022/06/30 12:15:50;;;;;;;5.75;1.40;;;27.10;99.90;;;;;;5215241;28;20370;-87
2022/06/30 12:18:24;;;;;;;2.80;1.40;;;27.50;99.90;;;;;;5216034;28;20022;-86
2022/06/30 12:20:56;;;;;;;5.40;1.35;;;27.30;99.90;;;;;;5219995;28;20045;-78
2022/06/30 12:23:27;;;;;;;4.45;1.52;;;27.80;99.90;;;;;;5221359;28;20370;-74
2022/06/30 12:25:58;;;;;;;3.42;1.30;;;27.30;99.90;;;;;;5214882;28;20021;-82
2022/06/30 12:28:51;;;;;;;2.80;1.30;;;27.00;99.90;;;;;;5213953;28;20029;-87
2022/06/30 12:31:28;;;;;;;4.55;1.52;;;26.70;99.90;;;;;;5226575;28;20025;-79
2022/06/30 12:34:00;;;;;;;4.05;1.73;;;27.40;99.90;;;;;;5217820;28;20551;-86
2022/06/30 12:36:33;;;;;;;2.85;1.30;;;26.90;99.90;;;;;;5218197;28;20032;-83
2022/06/30 12:39:15;;;;;;;4.57;1.50;;;27.10;99.90;;;;;;5220752;28;20016;-78
2022/06/30 12:41:46;;;;;;;5.28;1.70;;;27.20;99.90;;;;;;5213955;28;20022;-83
2022/06/30 12:44:32;;;;;;;5.20;1.88;;;27.00;99.90;;;;;;5213912;28;20541;-86
2022/06/30 12:47:15;;;;;;;5.07;1.45;;;27.10;99.90;;;;;;5230913;28;20040;-84
2022/06/30 12:49:46;;;;;;;5.57;1.55;;;27.20;99.90;;;;;;5215073;28;20399;-87
2022/06/30 12:52:19;;;;;;;6.22;1.80;;;26.30;99.90;;;;;;5212352;28;20034;-85
2022/06/30 12:54:55;;;;;;;4.25;1.90;;;27.80;99.90;;;;;;5211673;28;20017;-83
2022/06/30 12:57:35;;;;;;;6.63;1.95;;;27.80;99.90;;;;;;5214473;28;20036;-81
2022/06/30 13:00:06;;;;;;;4.43;1.40;;;27.10;99.90;;;;;;5212242;28;20025;-77
2022/06/30 13:02:42;;;;;;;5.47;1.55;;;28.00;99.90;;;;;;5211845;28;20465;-83
2022/06/30 13:05:13;;;;;;;5.35;1.80;;;26.90;99.90;;;;;;5214892;28;20044;-85
2022/06/30 13:07:44;;;;;;;6.70;2.00;;;26.80;99.90;;;;;;5219374;28;20029;-77
2022/06/30 13:11:04;;;;;;;4.82;1.50;;;26.90;99.90;;;;;;5216837;28;20033;-87
2022/06/30 13:13:07;;;;;;;4.78;1.65;;;27.70;99.90;;;;;;5224414;28;20029;-85
2022/06/30 13:15:41;;;;;;;3.80;1.50;;;27.60;99.90;;;;;;5212000;28;20031;-87
2022/06/30 13:18:12;;;;;;;4.35;1.40;;;27.80;99.90;;;;;;5215447;28;20075;-85
2022/06/30 13:20:43;;;;;;;4.13;1.75;;;28.10;99.90;;;;;;5224330;28;20061;-86
2022/06/30 13:23:14;;;;;;;4.75;1.70;;;27.30;99.90;;;;;;5226619;28;20030;-78
2022/06/30 13:25:44;;;;;;;4.18;1.10;;;27.00;99.90;;;;;;5216837;28;20021;-86
2022/06/30 13:28:15;;;;;;;7.18;1.73;;;27.80;99.90;;;;;;5217833;28;20029;-79
2022/06/30 13:30:46;;;;;;;3.90;1.60;;;27.40;99.90;;;;;;5223828;28;20033;-81
2022/06/30 13:33:17;;;;;;;4.05;1.85;;;28.00;99.90;;;;;;5226835;28;20493;-73
2022/06/30 13:35:50;;;;;;;6.47;1.63;;;27.70;99.90;;;;;;5215863;28;20060;-73